Time;durP1;ratioP1;P1;durP2;ratioP2;P2;SDS_P1;SDS_P2;PMS_P1;PMS_P2;Temp;Humidity;BMP_temperature;BMP_pressure;BME280_temperature;BME280_humidity;BME280_pressure;Samples;Min_cycle;Max_cycle;Signal;HPM_P1;HPM_P2
2022/10/25 00:00:40;;;;;;;1.92;1.33;;;11.80;99.90;;;;;;4992752;28;20034;-83
2022/10/25 00:03:08;;;;;;;4.10;1.55;;;11.80;99.90;;;;;;4971116;28;20625;-82
2022/10/25 00:05:35;;;;;;;2.17;1.52;;;11.80;99.90;;;;;;4974512;28;20032;-84
2022/10/25 00:08:01;;;;;;;2.88;1.30;;;11.70;99.90;;;;;;4989003;28;20042;-83
2022/10/25 00:10:27;;;;;;;6.47;1.25;;;11.70;99.90;;;;;;4976349;28;20129;-82
2022/10/25 00:12:53;;;;;;;3.30;1.20;;;11.60;99.90;;;;;;4991242;28;20065;-82
2022/10/25 00:15:19;;;;;;;2.25;1.10;;;11.60;99.90;;;;;;4990878;28;20062;-82
2022/10/25 00:17:44;;;;;;;3.38;1.48;;;11.60;99.90;;;;;;4974783;28;20659;-82
2022/10/25 00:20:11;;;;;;;1.58;1.10;;;11.50;99.90;;;;;;4991366;28;20036;-83
2022/10/25 00:22:37;;;;;;;3.95;1.20;;;11.50;99.90;;;;;;4974401;28;20178;-83
2022/10/25 00:25:05;;;;;;;4.80;1.25;;;11.40;99.90;;;;;;4991193;28;20549;-82
2022/10/25 00:27:31;;;;;;;3.58;1.08;;;11.40;99.90;;;;;;4982601;28;20042;-82
2022/10/25 00:29:57;;;;;;;1.50;0.80;;;11.30;99.90;;;;;;4964039;28;20034;-81
2022/10/25 00:32:22;;;;;;;1.77;0.88;;;11.30;99.90;;;;;;4985878;28;20037;-82
2022/10/25 00:34:48;;;;;;;2.97;0.90;;;11.30;99.90;;;;;;4988178;28;20042;-82
2022/10/25 00:37:14;;;;;;;2.67;1.00;;;11.20;99.90;;;;;;4993651;28;20034;-82
2022/10/25 00:39:40;;;;;;;3.47;0.93;;;11.10;99.90;;;;;;4965192;28;20045;-82
2022/10/25 00:42:08;;;;;;;2.20;0.77;;;11.10;99.90;;;;;;5007994;28;20034;-82
2022/10/25 00:44:45;;;;;;;1.73;0.70;;;11.10;99.90;;;;;;4979245;28;20030;-82
2022/10/25 00:47:19;;;;;;;2.72;1.20;;;11.00;99.90;;;;;;4980837;28;20038;-82
2022/10/25 00:50:18;;;;;;;2.65;0.90;;;11.00;99.90;;;;;;4988110;28;20038;-83
2022/10/25 00:52:47;;;;;;;5.70;1.40;;;11.00;99.90;;;;;;4964570;28;20053;-82
2022/10/25 00:55:15;;;;;;;1.75;0.90;;;11.00;99.90;;;;;;4999953;28;20411;-82
2022/10/25 00:57:50;;;;;;;1.35;0.82;;;10.90;99.90;;;;;;4958510;28;20058;-81
2022/10/25 01:00:16;;;;;;;1.70;0.93;;;10.90;99.90;;;;;;4975897;28;20038;-81
2022/10/25 01:02:42;;;;;;;4.32;1.00;;;10.90;99.90;;;;;;4979380;28;20026;-82
2022/10/25 01:05:09;;;;;;;3.28;1.17;;;10.90;99.90;;;;;;4974800;28;20129;-82
2022/10/25 01:07:34;;;;;;;3.28;1.10;;;10.90;99.90;;;;;;4998798;28;20601;-82
2022/10/25 01:10:01;;;;;;;4.50;1.05;;;10.90;99.90;;;;;;4992181;28;20056;-82
2022/10/25 01:12:26;;;;;;;2.08;0.75;;;10.90;99.90;;;;;;4992889;28;20034;-82
2022/10/25 01:14:53;;;;;;;1.73;0.75;;;10.90;99.90;;;;;;5026631;28;20111;-83
2022/10/25 01:17:35;;;;;;;2.85;0.80;;;10.90;99.90;;;;;;4972000;28;20674;-82
2022/10/25 01:20:09;;;;;;;3.20;0.88;;;10.90;99.90;;;;;;4987002;28;20085;-82
2022/10/25 01:22:35;;;;;;;2.80;0.80;;;11.00;99.90;;;;;;5018390;28;20093;-82
2022/10/25 01:25:07;;;;;;;5.90;0.82;;;11.00;99.90;;;;;;4990123;28;20034;-82
2022/10/25 01:28:02;;;;;;;5.05;0.82;;;11.00;99.90;;;;;;4975081;28;20034;-82
2022/10/25 01:30:58;;;;;;;3.90;0.90;;;11.00;99.90;;;;;;4985022;28;20826;-82
2022/10/25 01:33:47;;;;;;;2.92;0.88;;;11.00;99.90;;;;;;4988986;28;20047;-81
2022/10/25 01:36:17;;;;;;;2.53;0.75;;;11.00;99.90;;;;;;4958269;28;20499;-82
2022/10/25 01:39:27;;;;;;;3.50;1.60;;;10.90;99.90;;;;;;4989206;28;20039;-82
2022/10/25 01:42:26;;;;;;;0.98;0.70;;;10.90;99.90;;;;;;4912064;29;20042;-82
2022/10/25 01:45:11;;;;;;;1.10;0.60;;;10.90;99.90;;;;;;4917843;29;20511;-82
2022/10/25 01:48:18;;;;;;;1.88;0.50;;;10.90;99.90;;;;;;4972957;28;20042;-82
2022/10/25 01:50:46;;;;;;;2.55;0.70;;;10.90;99.90;;;;;;4963337;28;20041;-82
2022/10/25 01:53:13;;;;;;;1.25;0.90;;;10.90;99.90;;;;;;4976557;28;20588;-82
2022/10/25 01:55:53;;;;;;;4.75;0.98;;;10.90;99.90;;;;;;4981210;28;20029;-82
2022/10/25 01:58:48;;;;;;;1.88;0.70;;;10.90;99.90;;;;;;4976605;28;20030;-83
2022/10/25 02:01:33;;;;;;;3.03;0.60;;;10.90;99.90;;;;;;4962635;28;20034;-82
2022/10/25 02:04:26;;;;;;;2.78;0.95;;;10.90;99.90;;;;;;4989168;28;20037;-81
2022/10/25 02:07:05;;;;;;;7.13;1.00;;;10.90;99.90;;;;;;4989472;28;20132;-82
2022/10/25 02:09:56;;;;;;;1.20;0.60;;;10.90;99.90;;;;;;5005518;28;20033;-82
2022/10/25 02:12:32;;;;;;;4.28;0.80;;;10.90;99.90;;;;;;4986760;28;20043;-82
2022/10/25 02:15:21;;;;;;;2.67;0.63;;;10.80;99.90;;;;;;4973181;28;20049;-83
2022/10/25 02:17:53;;;;;;;2.92;0.77;;;10.90;99.90;;;;;;4989129;28;20034;-82
2022/10/25 02:20:23;;;;;;;4.25;0.70;;;10.90;99.90;;;;;;4989223;28;20026;-82
2022/10/25 02:22:50;;;;;;;3.67;0.80;;;10.80;99.90;;;;;;4988623;28;20030;-82
2022/10/25 02:25:17;;;;;;;1.55;0.70;;;10.80;99.90;;;;;;5005930;28;20038;-82
2022/10/25 02:27:43;;;;;;;1.75;0.70;;;10.80;99.90;;;;;;4989032;28;20037;-82
2022/10/25 02:30:10;;;;;;;0.75;0.50;;;10.80;99.90;;;;;;4972917;28;20407;-82
2022/10/25 02:32:36;;;;;;;0.70;0.70;;;10.80;99.90;;;;;;4986037;28;20039;-82
2022/10/25 02:35:02;;;;;;;3.42;0.65;;;10.70;99.90;;;;;;4955166;28;20085;-82
2022/10/25 02:37:29;;;;;;;2.25;0.50;;;10.70;99.90;;;;;;4988840;28;20061;-82
2022/10/25 02:39:55;;;;;;;2.60;1.00;;;10.80;99.90;;;;;;4972533;28;20155;-82
2022/10/25 02:42:20;;;;;;;1.27;0.60;;;10.70;99.90;;;;;;4972589;28;20030;-83
2022/10/25 02:44:46;;;;;;;0.82;0.50;;;10.80;99.90;;;;;;4972551;28;20506;-82
2022/10/25 02:47:12;;;;;;;2.25;0.57;;;10.80;99.90;;;;;;4988764;28;20042;-82
2022/10/25 02:49:38;;;;;;;1.65;0.52;;;10.70;99.90;;;;;;4980021;28;20041;-82
2022/10/25 02:52:03;;;;;;;2.38;0.70;;;10.80;99.90;;;;;;5003529;28;20507;-82
2022/10/25 02:54:29;;;;;;;2.03;0.60;;;10.70;99.90;;;;;;5021201;28;20038;-83
2022/10/25 02:56:55;;;;;;;5.63;0.60;;;10.70;99.90;;;;;;4976031;28;20046;-83
2022/10/25 02:59:21;;;;;;;0.60;0.55;;;10.70;99.90;;;;;;4969755;28;20042;-83
2022/10/25 03:01:47;;;;;;;0.93;0.40;;;10.70;99.90;;;;;;4953109;28;20041;-82
2022/10/25 03:04:13;;;;;;;9.23;0.88;;;10.70;99.90;;;;;;4988643;28;20109;-82
2022/10/25 03:06:40;;;;;;;0.95;0.50;;;10.70;99.90;;;;;;4968146;28;20100;-82
2022/10/25 03:09:05;;;;;;;2.63;0.60;;;10.70;99.90;;;;;;4974626;28;20034;-83
2022/10/25 03:11:31;;;;;;;3.40;0.60;;;10.70;99.90;;;;;;4971844;28;20034;-81
2022/10/25 03:13:57;;;;;;;0.45;0.30;;;10.60;99.90;;;;;;4969593;28;20035;-82
2022/10/25 03:16:23;;;;;;;2.33;0.60;;;10.70;99.90;;;;;;4973495;28;20376;-82
2022/10/25 03:18:49;;;;;;;2.95;0.65;;;10.70;99.90;;;;;;4972861;28;20038;-82
2022/10/25 03:21:14;;;;;;;0.50;0.50;;;10.60;99.90;;;;;;4988640;28;20109;-82
2022/10/25 03:23:40;;;;;;;5.85;0.63;;;10.60;99.90;;;;;;4988420;28;20741;-81
2022/10/25 03:26:06;;;;;;;2.63;0.60;;;10.60;99.90;;;;;;4971121;28;20065;-81
2022/10/25 03:28:32;;;;;;;2.47;0.90;;;10.70;99.90;;;;;;4971602;28;20065;-82
2022/10/25 03:30:59;;;;;;;1.25;0.50;;;10.70;99.90;;;;;;4978338;28;20100;-84
2022/10/25 03:33:25;;;;;;;1.88;0.47;;;10.70;99.90;;;;;;5005122;28;20129;-82
2022/10/25 03:35:53;;;;;;;2.10;0.60;;;10.60;99.90;;;;;;4990196;28;20105;-81
2022/10/25 03:38:19;;;;;;;1.42;0.40;;;10.60;99.90;;;;;;4971790;28;20030;-83
2022/10/25 03:40:45;;;;;;;3.55;0.52;;;10.60;99.90;;;;;;4974983;28;20149;-82
2022/10/25 03:43:11;;;;;;;3.15;0.50;;;10.60;99.90;;;;;;4970587;28;20063;-83
2022/10/25 03:45:37;;;;;;;2.17;0.55;;;10.60;99.90;;;;;;4978843;28;20458;-83
2022/10/25 03:48:03;;;;;;;1.45;0.55;;;10.60;99.90;;;;;;4991510;28;20105;-83
2022/10/25 03:50:29;;;;;;;1.88;0.60;;;10.60;99.90;;;;;;5012661;28;20079;-82
2022/10/25 03:52:54;;;;;;;0.68;0.30;;;10.60;99.90;;;;;;4991521;28;20487;-83
2022/10/25 03:55:20;;;;;;;2.15;0.60;;;10.50;99.90;;;;;;4959298;28;20030;-82
2022/10/25 03:57:46;;;;;;;5.18;0.60;;;10.60;99.90;;;;;;4991463;28;20402;-82
2022/10/25 04:00:14;;;;;;;1.17;0.47;;;10.50;99.90;;;;;;4959839;28;20046;-82
2022/10/25 04:02:39;;;;;;;0.65;0.40;;;10.60;99.90;;;;;;4994662;28;20034;-83
2022/10/25 04:05:05;;;;;;;2.08;0.60;;;10.60;99.90;;;;;;5001004;28;20053;-83
2022/10/25 04:07:31;;;;;;;5.22;0.50;;;10.60;99.90;;;;;;4959629;28;20037;-83
2022/10/25 04:09:57;;;;;;;3.38;0.52;;;10.60;99.90;;;;;;4949550;28;20046;-83
2022/10/25 04:12:22;;;;;;;3.30;0.60;;;10.60;99.90;;;;;;4954853;28;20418;-82
2022/10/25 04:14:48;;;;;;;3.55;0.80;;;10.60;99.90;;;;;;4975995;28;20034;-83
2022/10/25 04:17:14;;;;;;;1.80;0.45;;;10.60;99.90;;;;;;4975857;28;20113;-83
2022/10/25 04:19:40;;;;;;;3.42;0.50;;;10.60;99.90;;;;;;4991595;28;20506;-83
2022/10/25 04:22:05;;;;;;;1.05;0.50;;;10.60;99.90;;;;;;5022890;28;20662;-83
2022/10/25 04:24:31;;;;;;;1.77;0.70;;;10.60;99.90;;;;;;4962481;28;20034;-82
2022/10/25 04:26:57;;;;;;;2.53;0.40;;;10.60;99.90;;;;;;4978819;28;20038;-83
2022/10/25 04:29:23;;;;;;;0.77;0.55;;;10.60;99.90;;;;;;4975835;28;20069;-83
2022/10/25 04:31:49;;;;;;;3.28;0.63;;;10.60;99.90;;;;;;4993601;28;20109;-83
2022/10/25 04:34:14;;;;;;;2.70;0.50;;;10.60;99.90;;;;;;5008086;28;20076;-84
2022/10/25 04:36:40;;;;;;;6.70;0.80;;;10.60;99.90;;;;;;5004042;28;20449;-83
2022/10/25 04:39:06;;;;;;;3.53;0.60;;;10.60;99.90;;;;;;4962668;28;20034;-83
2022/10/25 04:41:32;;;;;;;1.90;0.65;;;10.60;99.90;;;;;;5004986;28;20034;-83
2022/10/25 04:43:57;;;;;;;1.08;0.60;;;10.60;99.90;;;;;;4950634;28;20077;-82
2022/10/25 04:46:23;;;;;;;1.42;0.40;;;10.50;99.90;;;;;;4976603;28;20249;-82
2022/10/25 04:48:49;;;;;;;4.97;1.20;;;10.50;99.90;;;;;;4974973;28;20038;-84
2022/10/25 04:51:15;;;;;;;1.65;0.70;;;10.60;99.90;;;;;;4975230;28;20125;-84
2022/10/25 04:53:40;;;;;;;2.00;0.73;;;10.50;99.90;;;;;;4958549;28;20039;-84
2022/10/25 04:56:09;;;;;;;3.90;0.60;;;10.50;99.90;;;;;;4975080;28;20089;-83
2022/10/25 04:58:35;;;;;;;2.90;1.08;;;10.50;99.90;;;;;;4957881;28;20077;-83
2022/10/25 05:01:07;;;;;;;1.85;0.70;;;10.50;99.90;;;;;;4981429;28;20034;-84
2022/10/25 05:03:33;;;;;;;3.33;0.63;;;10.50;99.90;;;;;;4975017;28;20042;-82
2022/10/25 05:06:07;;;;;;;0.52;0.52;;;10.50;99.90;;;;;;4990731;28;20050;-83
2022/10/25 05:08:33;;;;;;;1.23;0.32;;;10.60;99.90;;;;;;5007347;28;20030;-84
2022/10/25 05:10:59;;;;;;;2.05;0.60;;;10.50;99.90;;;;;;4996811;28;20343;-82
2022/10/25 05:13:25;;;;;;;2.80;0.60;;;10.60;99.90;;;;;;4991421;28;20038;-82
2022/10/25 05:15:57;;;;;;;1.30;1.02;;;10.70;99.90;;;;;;4979874;28;20632;-82
2022/10/25 05:18:23;;;;;;;1.88;0.60;;;10.70;99.90;;;;;;4991423;28;20045;-83
2022/10/25 05:20:58;;;;;;;4.00;0.50;;;10.70;99.90;;;;;;4976982;28;20034;-83
2022/10/25 05:23:26;;;;;;;4.18;0.60;;;10.70;99.90;;;;;;4987408;28;20023;-82
2022/10/25 05:26:07;;;;;;;1.98;0.88;;;10.70;99.90;;;;;;4976591;28;20110;-83
2022/10/25 05:28:37;;;;;;;0.80;0.40;;;10.60;99.90;;;;;;4999078;28;20034;-83
2022/10/25 05:31:07;;;;;;;2.40;0.73;;;10.60;99.90;;;;;;4982268;28;20041;-83
2022/10/25 05:33:33;;;;;;;2.50;0.60;;;10.60;99.90;;;;;;5016266;28;20034;-83
2022/10/25 05:36:01;;;;;;;3.60;0.50;;;10.60;99.90;;;;;;4974672;28;20431;-83
2022/10/25 05:38:27;;;;;;;3.50;0.80;;;10.60;99.90;;;;;;4989289;28;20031;-83
2022/10/25 05:40:54;;;;;;;4.68;0.70;;;10.60;99.90;;;;;;4997679;28;20109;-82
2022/10/25 05:43:20;;;;;;;2.65;0.80;;;10.60;99.90;;;;;;4976862;28;20030;-82
2022/10/25 05:45:46;;;;;;;3.90;0.47;;;10.60;99.90;;;;;;4970454;28;20037;-83
2022/10/25 05:48:12;;;;;;;5.03;1.55;;;10.60;99.90;;;;;;5015233;28;20039;-83
2022/10/25 05:50:38;;;;;;;1.63;0.52;;;10.60;99.90;;;;;;4961539;28;20383;-83
2022/10/25 05:53:04;;;;;;;4.82;0.60;;;10.70;99.90;;;;;;4990820;28;20038;-82
2022/10/25 05:55:29;;;;;;;1.73;0.55;;;10.70;99.90;;;;;;4968252;28;20045;-82
2022/10/25 05:57:55;;;;;;;2.30;0.65;;;10.70;99.90;;;;;;4973594;28;20044;-83
2022/10/25 06:00:21;;;;;;;2.53;0.60;;;10.80;99.90;;;;;;4973502;28;20041;-82
2022/10/25 06:02:47;;;;;;;1.83;0.57;;;10.80;99.90;;;;;;4982606;28;20026;-82
2022/10/25 06:05:13;;;;;;;3.83;0.60;;;10.90;99.90;;;;;;4971664;28;20564;-83
2022/10/25 06:07:38;;;;;;;1.65;0.38;;;10.90;99.90;;;;;;4992297;28;20034;-83
2022/10/25 06:10:05;;;;;;;2.65;0.73;;;10.90;99.90;;;;;;4960361;28;20047;-82
2022/10/25 06:12:30;;;;;;;5.10;0.60;;;11.00;99.90;;;;;;4975927;28;20068;-82
2022/10/25 06:14:56;;;;;;;4.70;0.90;;;11.00;99.90;;;;;;4980320;28;20453;-82
2022/10/25 06:17:22;;;;;;;2.63;0.63;;;11.00;99.90;;;;;;4956952;28;20549;-82
2022/10/25 06:19:48;;;;;;;2.03;0.82;;;11.00;99.90;;;;;;4970072;28;20034;-82
2022/10/25 06:22:13;;;;;;;1.67;0.55;;;11.00;99.90;;;;;;4975495;28;20049;-82
2022/10/25 06:24:39;;;;;;;1.65;0.57;;;11.00;99.90;;;;;;4989266;28;20074;-82
2022/10/25 06:27:05;;;;;;;1.05;0.50;;;11.00;99.90;;;;;;4976156;28;20053;-83
2022/10/25 06:29:31;;;;;;;2.03;0.55;;;11.00;99.90;;;;;;4965250;28;20085;-82
2022/10/25 06:31:57;;;;;;;1.25;0.50;;;11.00;99.90;;;;;;4969353;28;20570;-83
2022/10/25 06:34:22;;;;;;;1.58;0.50;;;11.00;99.90;;;;;;4973027;28;20041;-82
2022/10/25 06:36:48;;;;;;;1.10;0.40;;;11.00;99.90;;;;;;4984975;28;20037;-82
2022/10/25 06:39:14;;;;;;;2.45;0.40;;;11.00;99.90;;;;;;4972740;28;20506;-83
2022/10/25 06:41:40;;;;;;;3.22;0.60;;;11.00;99.90;;;;;;4984219;28;20061;-82
2022/10/25 06:44:07;;;;;;;1.65;0.40;;;11.10;99.90;;;;;;4956178;28;20505;-82
2022/10/25 06:46:36;;;;;;;3.33;0.75;;;11.20;99.90;;;;;;4953529;28;20185;-83
2022/10/25 06:49:04;;;;;;;2.83;0.80;;;11.20;99.90;;;;;;4990607;28;20033;-82
2022/10/25 06:51:32;;;;;;;1.73;0.60;;;11.30;99.90;;;;;;5015817;28;20045;-82
2022/10/25 06:54:00;;;;;;;1.20;0.60;;;11.20;99.90;;;;;;4972827;28;20097;-82
2022/10/25 06:56:27;;;;;;;0.95;0.38;;;11.30;99.90;;;;;;4988867;28;20479;-83
2022/10/25 06:58:54;;;;;;;0.70;0.40;;;11.30;99.90;;;;;;4989885;28;20384;-83
2022/10/25 07:01:21;;;;;;;1.52;0.45;;;11.40;99.90;;;;;;4986928;28;20396;-82
2022/10/25 07:03:49;;;;;;;6.82;0.70;;;11.40;99.90;;;;;;4980234;28;20101;-82
2022/10/25 07:06:17;;;;;;;3.22;0.70;;;11.40;99.90;;;;;;4978484;28;20081;-83
2022/10/25 07:08:45;;;;;;;3.50;0.55;;;11.40;99.90;;;;;;4988677;28;20101;-82
2022/10/25 07:11:19;;;;;;;1.83;0.43;;;11.50;99.90;;;;;;4997062;28;20042;-83
2022/10/25 07:13:45;;;;;;;1.73;0.70;;;11.50;99.90;;;;;;4991919;28;20033;-82
2022/10/25 07:16:14;;;;;;;2.25;0.70;;;11.50;99.90;;;;;;4994530;28;20118;-82
2022/10/25 07:18:40;;;;;;;3.00;0.75;;;11.50;99.90;;;;;;4985006;28;20561;-82
2022/10/25 07:21:11;;;;;;;3.55;0.65;;;11.60;99.90;;;;;;4988027;28;20643;-82
2022/10/25 07:23:41;;;;;;;1.90;0.70;;;11.60;99.90;;;;;;4952975;28;20039;-82
2022/10/25 07:26:19;;;;;;;4.47;0.70;;;11.80;99.90;;;;;;4995187;28;20091;-82
2022/10/25 07:28:46;;;;;;;1.35;0.60;;;11.90;99.90;;;;;;4988559;28;20035;-83
2022/10/25 07:31:14;;;;;;;2.25;0.50;;;11.90;99.90;;;;;;4990924;28;20162;-83
2022/10/25 07:33:40;;;;;;;1.45;0.70;;;12.00;99.90;;;;;;4976109;28;20102;-82
2022/10/25 07:36:06;;;;;;;3.40;0.57;;;12.10;99.90;;;;;;4975938;28;20061;-82
2022/10/25 07:38:32;;;;;;;2.72;0.60;;;12.10;99.90;;;;;;4992082;28;20518;-83
2022/10/25 07:40:58;;;;;;;5.20;0.80;;;12.10;99.90;;;;;;4976192;28;20031;-83
2022/10/25 07:43:25;;;;;;;1.08;0.57;;;12.20;99.90;;;;;;4972813;28;20042;-84
2022/10/25 07:45:52;;;;;;;2.30;0.70;;;12.10;99.90;;;;;;4961725;28;20071;-83
2022/10/25 07:48:17;;;;;;;1.95;0.55;;;12.20;99.90;;;;;;5007865;28;20070;-83
2022/10/25 07:50:43;;;;;;;3.00;0.60;;;12.20;99.90;;;;;;4992179;28;20022;-84
2022/10/25 07:53:09;;;;;;;2.67;0.70;;;12.20;99.90;;;;;;4991905;28;20475;-83
2022/10/25 07:55:35;;;;;;;3.58;0.70;;;12.10;99.90;;;;;;4976336;28;20415;-83
2022/10/25 07:58:03;;;;;;;9.18;0.70;;;12.10;99.90;;;;;;4993124;28;20043;-83
2022/10/25 08:00:29;;;;;;;3.63;0.70;;;12.20;99.90;;;;;;4983210;28;20030;-83
2022/10/25 08:02:55;;;;;;;2.72;0.70;;;12.20;99.90;;;;;;4972761;28;20355;-83
2022/10/25 08:05:21;;;;;;;1.98;0.68;;;12.30;99.90;;;;;;4966311;28;20034;-83
2022/10/25 08:07:48;;;;;;;1.73;0.70;;;12.30;99.90;;;;;;4991753;28;20045;-83
2022/10/25 08:10:14;;;;;;;6.00;0.70;;;12.20;99.90;;;;;;4975223;28;20035;-83
2022/10/25 08:12:40;;;;;;;3.72;0.60;;;12.30;99.90;;;;;;4998488;28;20038;-83
2022/10/25 08:15:06;;;;;;;2.13;0.80;;;12.30;99.90;;;;;;4961989;28;20045;-83
2022/10/25 08:17:32;;;;;;;3.95;0.70;;;12.40;99.90;;;;;;4957723;28;20031;-83
2022/10/25 08:19:58;;;;;;;1.55;0.60;;;12.40;99.90;;;;;;4987754;28;20057;-83
2022/10/25 08:22:24;;;;;;;4.65;0.60;;;12.40;99.90;;;;;;4962848;28;20058;-83
2022/10/25 08:24:50;;;;;;;5.88;0.60;;;12.50;99.90;;;;;;4976715;28;20676;-83
2022/10/25 08:27:16;;;;;;;0.93;0.55;;;12.50;99.90;;;;;;4969748;28;20058;-82
2022/10/25 08:29:42;;;;;;;6.72;0.80;;;12.60;99.90;;;;;;4979978;28;20034;-82
2022/10/25 08:32:08;;;;;;;3.85;0.85;;;12.60;99.90;;;;;;4983050;28;20042;-83
2022/10/25 08:34:34;;;;;;;2.08;1.10;;;12.70;99.90;;;;;;4984833;28;20065;-83
2022/10/25 08:36:59;;;;;;;3.78;1.20;;;12.60;99.90;;;;;;5013721;28;20318;-83
2022/10/25 08:39:25;;;;;;;3.03;0.77;;;12.50;99.90;;;;;;4963448;28;20038;-83
2022/10/25 08:42:00;;;;;;;1.88;1.25;;;12.40;99.90;;;;;;5004221;28;20041;-83
2022/10/25 08:44:34;;;;;;;3.00;0.90;;;12.40;99.90;;;;;;4976144;28;20345;-83
2022/10/25 08:47:33;;;;;;;1.10;0.60;;;12.30;99.90;;;;;;4981994;28;20945;-83
2022/10/25 08:50:04;;;;;;;2.88;0.95;;;12.40;99.90;;;;;;4979196;28;20060;-82
2022/10/25 08:52:39;;;;;;;2.50;0.90;;;12.40;99.90;;;;;;4994052;28;20073;-83
2022/10/25 08:55:22;;;;;;;4.03;0.70;;;12.40;99.90;;;;;;4992257;28;20097;-83
2022/10/25 08:57:50;;;;;;;2.17;0.88;;;12.50;99.90;;;;;;4980056;28;20521;-83
2022/10/25 09:00:22;;;;;;;2.58;0.75;;;12.60;99.90;;;;;;4995276;28;20126;-84
2022/10/25 09:02:53;;;;;;;2.88;1.00;;;12.70;99.90;;;;;;4995688;28;20037;-83
2022/10/25 09:05:37;;;;;;;1.80;1.00;;;12.70;99.90;;;;;;4980135;28;20038;-83
2022/10/25 09:08:26;;;;;;;5.07;0.93;;;12.80;99.90;;;;;;5001783;28;20110;-84
2022/10/25 09:11:32;;;;;;;3.17;0.95;;;12.80;99.90;;;;;;4947464;28;20101;-83
2022/10/25 09:14:07;;;;;;;2.80;0.80;;;12.80;99.90;;;;;;4966659;28;20038;-83
2022/10/25 09:16:57;;;;;;;3.25;0.82;;;12.70;99.90;;;;;;4991053;28;20446;-82
2022/10/25 09:19:47;;;;;;;2.40;0.77;;;12.80;99.90;;;;;;5008943;28;20030;-83
2022/10/25 09:22:45;;;;;;;3.63;0.85;;;12.80;99.90;;;;;;4994321;28;20032;-83
2022/10/25 09:25:20;;;;;;;2.03;1.08;;;12.80;99.90;;;;;;4980100;28;20491;-83
2022/10/25 09:27:58;;;;;;;3.65;1.10;;;12.90;99.90;;;;;;4969620;28;20038;-83
2022/10/25 09:30:26;;;;;;;4.78;1.00;;;12.90;99.90;;;;;;4997664;28;20041;-83
2022/10/25 09:32:57;;;;;;;1.88;1.00;;;12.90;99.90;;;;;;4994814;28;20041;-83
2022/10/25 09:35:51;;;;;;;4.75;1.13;;;12.90;99.90;;;;;;4995158;28;20058;-82
2022/10/25 09:38:51;;;;;;;4.65;1.02;;;13.00;99.90;;;;;;4991204;28;20089;-83
2022/10/25 09:41:47;;;;;;;5.63;1.05;;;13.00;99.90;;;;;;4976124;28;20459;-83
2022/10/25 09:44:42;;;;;;;3.00;1.27;;;13.00;99.90;;;;;;4989827;28;20043;-83
2022/10/25 09:47:42;;;;;;;5.10;1.10;;;13.10;99.90;;;;;;4993294;28;20034;-83
2022/10/25 09:50:23;;;;;;;3.45;1.10;;;13.10;99.90;;;;;;4987140;28;20058;-82
2022/10/25 09:53:04;;;;;;;3.67;1.08;;;13.10;99.90;;;;;;4977087;28;20040;-83
2022/10/25 09:55:52;;;;;;;6.47;1.67;;;13.10;99.90;;;;;;4991967;28;20455;-83
2022/10/25 09:58:24;;;;;;;3.10;1.38;;;13.10;99.90;;;;;;5009991;28;20053;-83
2022/10/25 10:00:52;;;;;;;3.50;1.27;;;13.10;99.90;;;;;;4979255;28;20049;-83
2022/10/25 10:03:19;;;;;;;4.13;1.00;;;13.10;99.90;;;;;;5009483;28;20053;-83
2022/10/25 10:05:53;;;;;;;9.13;1.50;;;13.10;99.90;;;;;;4983730;28;20404;-83
2022/10/25 10:08:20;;;;;;;0.80;0.80;;;13.20;99.90;;;;;;4975035;28;20061;-83
2022/10/25 10:10:48;;;;;;;1.67;1.05;;;13.20;99.90;;;;;;4972195;28;20473;-82
2022/10/25 10:13:37;;;;;;;4.55;1.40;;;13.30;99.90;;;;;;5007802;28;20049;-83
2022/10/25 10:16:37;;;;;;;4.65;1.60;;;13.40;99.90;;;;;;4989464;28;20026;-83
2022/10/25 10:19:19;;;;;;;2.90;1.23;;;13.50;99.90;;;;;;4988970;28;20030;-83
2022/10/25 10:21:49;;;;;;;4.47;1.38;;;13.60;99.90;;;;;;4978177;28;20038;-83
2022/10/25 10:24:17;;;;;;;2.80;1.30;;;13.60;99.90;;;;;;4973822;28;20070;-83
2022/10/25 10:26:53;;;;;;;5.40;1.80;;;13.70;99.90;;;;;;5018458;28;20041;-83
2022/10/25 10:29:24;;;;;;;5.32;1.90;;;13.70;99.90;;;;;;4974187;28;20054;-83
2022/10/25 10:32:02;;;;;;;7.50;1.40;;;13.80;99.90;;;;;;5000657;28;20049;-82
2022/10/25 10:34:49;;;;;;;2.55;1.55;;;13.90;99.90;;;;;;4979500;28;20035;-83
2022/10/25 10:37:26;;;;;;;7.70;2.13;;;13.90;99.90;;;;;;5026766;28;20033;-83
2022/10/25 10:40:24;;;;;;;4.50;1.75;;;13.90;99.90;;;;;;5015915;28;20220;-83
2022/10/25 10:42:50;;;;;;;2.35;1.75;;;14.00;99.90;;;;;;4970797;28;20043;-83
2022/10/25 10:45:17;;;;;;;9.15;2.25;;;14.00;99.90;;;;;;4973539;28;20039;-82
2022/10/25 10:47:43;;;;;;;3.75;1.90;;;13.90;99.90;;;;;;4977907;28;20455;-82
2022/10/25 10:50:21;;;;;;;2.58;1.88;;;13.90;99.90;;;;;;5009357;28;20031;-83
2022/10/25 10:53:21;;;;;;;4.55;2.40;;;13.80;99.90;;;;;;5007147;28;20063;-82
2022/10/25 10:55:50;;;;;;;12.05;2.58;;;13.80;99.90;;;;;;5009752;28;20040;-82
2022/10/25 10:58:21;;;;;;;4.85;1.92;;;13.70;99.90;;;;;;5011514;28;20038;-83
2022/10/25 11:00:53;;;;;;;4.75;1.80;;;13.60;99.90;;;;;;4981090;28;20023;-82
2022/10/25 11:03:41;;;;;;;5.32;1.90;;;13.60;99.90;;;;;;4990013;28;20031;-83
2022/10/25 11:06:29;;;;;;;3.55;1.90;;;13.60;99.90;;;;;;4976576;28;20080;-83
2022/10/25 11:09:07;;;;;;;8.23;2.65;;;13.60;99.90;;;;;;4955992;28;20035;-83
2022/10/25 11:11:33;;;;;;;5.43;1.70;;;13.60;99.90;;;;;;4972343;28;20069;-83
2022/10/25 11:14:00;;;;;;;2.17;1.48;;;13.60;99.90;;;;;;4987342;28;20067;-83
2022/10/25 11:17:00;;;;;;;2.67;1.48;;;13.70;99.90;;;;;;4978607;28;20038;-84
2022/10/25 11:19:49;;;;;;;4.72;1.60;;;13.70;99.90;;;;;;4978604;28;20034;-82
2022/10/25 11:22:24;;;;;;;3.13;1.60;;;13.70;99.90;;;;;;4988958;28;20060;-83
2022/10/25 11:25:05;;;;;;;4.20;1.42;;;13.70;99.90;;;;;;4993146;28;20030;-82
2022/10/25 11:27:50;;;;;;;4.38;1.67;;;13.80;99.90;;;;;;4992660;28;20030;-83
2022/10/25 11:30:19;;;;;;;4.03;1.55;;;13.80;99.90;;;;;;4989083;28;20031;-83
2022/10/25 11:33:02;;;;;;;4.88;1.40;;;13.90;99.90;;;;;;5001962;28;20038;-82
2022/10/25 11:35:31;;;;;;;1.25;1.05;;;14.10;99.90;;;;;;4991962;28;20057;-83
2022/10/25 11:38:07;;;;;;;4.78;1.60;;;14.10;99.90;;;;;;4987333;28;20023;-84
2022/10/25 11:40:56;;;;;;;3.20;1.73;;;14.20;99.90;;;;;;4957367;28;20026;-83
2022/10/25 11:43:49;;;;;;;4.78;1.48;;;14.10;99.90;;;;;;4988364;28;20391;-83
2022/10/25 11:46:24;;;;;;;5.43;1.45;;;14.10;99.90;;;;;;4991706;28;20038;-83
2022/10/25 11:49:01;;;;;;;2.20;1.10;;;14.20;99.90;;;;;;4970110;28;20272;-84
2022/10/25 11:51:58;;;;;;;3.38;1.23;;;14.20;99.90;;;;;;4998667;28;20038;-83
2022/10/25 11:54:47;;;;;;;3.83;1.13;;;14.30;99.90;;;;;;4974954;28;20078;-84
2022/10/25 11:57:47;;;;;;;5.03;1.20;;;14.40;99.90;;;;;;4985076;28;20042;-85
2022/10/25 12:00:17;;;;;;;3.90;1.27;;;14.40;99.90;;;;;;4987359;28;20034;-85
2022/10/25 12:02:54;;;;;;;8.18;1.20;;;14.50;99.90;;;;;;4989027;28;20028;-83
2022/10/25 12:05:32;;;;;;;6.05;1.00;;;14.50;99.90;;;;;;5007638;28;20194;-84
2022/10/25 12:08:22;;;;;;;3.67;1.33;;;14.50;99.90;;;;;;5004770;28;20054;-82
2022/10/25 12:10:56;;;;;;;4.32;0.80;;;14.50;99.90;;;;;;4991393;28;20030;-84
2022/10/25 12:13:28;;;;;;;2.88;0.90;;;14.50;99.90;;;;;;4991985;28;20046;-83
2022/10/25 12:15:57;;;;;;;6.40;1.23;;;14.50;99.90;;;;;;4976191;28;20031;-82
2022/10/25 12:18:41;;;;;;;3.38;0.85;;;14.50;99.90;;;;;;5008634;28;20498;-86
2022/10/25 12:21:09;;;;;;;4.15;1.15;;;14.50;99.90;;;;;;4994018;28;20030;-83
2022/10/25 12:24:04;;;;;;;5.07;1.15;;;14.50;99.90;;;;;;4990478;28;20415;-85
2022/10/25 12:26:38;;;;;;;1.63;1.17;;;14.50;99.90;;;;;;4991539;28;20583;-85
2022/10/25 12:29:12;;;;;;;1.93;1.23;;;14.50;99.90;;;;;;4992537;28;20085;-84
2022/10/25 12:31:44;;;;;;;4.72;1.27;;;14.50;99.90;;;;;;4991403;28;20041;-82
2022/10/25 12:34:20;;;;;;;3.28;1.48;;;14.40;99.90;;;;;;4999804;28;20038;-82
2022/10/25 12:36:54;;;;;;;8.13;3.28;;;14.40;99.90;;;;;;4977156;28;20038;-83
2022/10/25 12:39:37;;;;;;;3.63;1.30;;;14.40;99.90;;;;;;4995266;28;20031;-83
2022/10/25 12:42:26;;;;;;;5.22;1.60;;;14.40;99.90;;;;;;5002827;28;20034;-83
2022/10/25 12:45:17;;;;;;;1.45;1.10;;;14.40;99.90;;;;;;4989034;28;20022;-82
2022/10/25 12:47:55;;;;;;;6.28;3.55;;;14.40;99.90;;;;;;4969201;28;20030;-81
2022/10/25 12:50:33;;;;;;;4.38;1.60;;;14.50;99.90;;;;;;4993955;28;20090;-82
2022/10/25 12:53:18;;;;;;;5.82;1.40;;;14.60;99.90;;;;;;5007087;28;20037;-83
2022/10/25 12:56:14;;;;;;;5.72;1.77;;;14.70;99.90;;;;;;4989159;28;20018;-82
2022/10/25 12:59:18;;;;;;;1.77;1.25;;;14.70;99.90;;;;;;4993915;28;20609;-83
2022/10/25 13:02:17;;;;;;;9.70;1.63;;;14.80;99.90;;;;;;4991017;28;20407;-82
2022/10/25 13:05:02;;;;;;;3.60;1.38;;;14.80;99.90;;;;;;4975580;28;20108;-82
2022/10/25 13:07:32;;;;;;;5.55;1.45;;;14.90;99.90;;;;;;5006619;28;20403;-82
2022/10/25 13:10:17;;;;;;;1.75;1.15;;;14.90;99.90;;;;;;4989771;28;20046;-82
2022/10/25 13:12:58;;;;;;;4.20;1.05;;;14.90;99.90;;;;;;4972170;28;20042;-82
2022/10/25 13:15:24;;;;;;;4.55;1.40;;;14.90;99.90;;;;;;4988643;28;20129;-82